sensor_id;sensor_type;location;lat;lon;timestamp;pressure;altitude;pressure_sealevel;temperature;humidity
23433;BME280;41331;45.412;10.992;2022-10-19T00:01:12;101665.22;;;16.16;98.55
23433;BME280;41331;45.412;10.992;2022-10-19T00:03:41;101671.34;;;16.22;98.63
23433;BME280;41331;45.412;10.992;2022-10-19T00:06:17;101669.78;;;16.33;97.11
23433;BME280;41331;45.412;10.992;2022-10-19T00:08:45;101661.63;;;16.24;97.25
23433;BME280;41331;45.412;10.992;2022-10-19T00:11:12;101655.88;;;16.17;98.07
23433;BME280;41331;45.412;10.992;2022-10-19T00:13:40;101654.44;;;16.11;98.38
23433;BME280;41331;45.412;10.992;2022-10-19T00:16:12;101666.72;;;16.14;98.15
23433;BME280;41331;45.412;10.992;2022-10-19T00:18:40;101652.84;;;16.10;98.40
23433;BME280;41331;45.412;10.992;2022-10-19T00:21:12;101646.22;;;16.11;98.40
23433;BME280;41331;45.412;10.992;2022-10-19T00:23:42;101644.00;;;16.04;98.97
23433;BME280;41331;45.412;10.992;2022-10-19T00:26:11;101644.81;;;16.05;99.16
23433;BME280;41331;45.412;10.992;2022-10-19T00:28:39;101647.25;;;16.07;99.00
23433;BME280;41331;45.412;10.992;2022-10-19T00:31:12;101646.91;;;16.08;99.08
23433;BME280;41331;45.412;10.992;2022-10-19T00:33:41;101645.41;;;16.11;98.77
23433;BME280;41331;45.412;10.992;2022-10-19T00:36:17;101646.56;;;16.10;99.00
23433;BME280;41331;45.412;10.992;2022-10-19T00:38:46;101642.34;;;16.12;98.86
23433;BME280;41331;45.412;10.992;2022-10-19T00:41:15;101641.06;;;16.10;98.97
23433;BME280;41331;45.412;10.992;2022-10-19T00:46:22;101634.63;;;16.05;99.81
23433;BME280;41331;45.412;10.992;2022-10-19T00:48:53;101639.22;;;16.01;100.00
23433;BME280;41331;45.412;10.992;2022-10-19T00:51:26;101640.22;;;15.97;100.00
23433;BME280;41331;45.412;10.992;2022-10-19T00:53:55;101640.53;;;15.95;100.00
23433;BME280;41331;45.412;10.992;2022-10-19T00:56:23;101625.41;;;15.89;100.00
23433;BME280;41331;45.412;10.992;2022-10-19T00:58:51;101636.44;;;15.80;100.00
23433;BME280;41331;45.412;10.992;2022-10-19T01:01:21;101628.41;;;15.75;100.00
23433;BME280;41331;45.412;10.992;2022-10-19T01:03:50;101627.59;;;15.75;100.00
23433;BME280;41331;45.412;10.992;2022-10-19T01:06:19;101625.22;;;15.73;100.00
23433;BME280;41331;45.412;10.992;2022-10-19T01:08:47;101626.41;;;15.64;100.00
23433;BME280;41331;45.412;10.992;2022-10-19T01:11:44;101620.13;;;15.63;100.00
23433;BME280;41331;45.412;10.992;2022-10-19T01:14:27;101625.44;;;15.60;100.00
23433;BME280;41331;45.412;10.992;2022-10-19T01:20:13;101624.59;;;15.68;100.00
23433;BME280;41331;45.412;10.992;2022-10-19T01:28:43;101614.88;;;15.70;100.00
23433;BME280;41331;45.412;10.992;2022-10-19T01:31:26;101614.22;;;15.73;100.00
23433;BME280;41331;45.412;10.992;2022-10-19T01:39:41;101597.75;;;15.73;100.00
23433;BME280;41331;45.412;10.992;2022-10-19T01:42:46;101602.09;;;15.74;100.00
23433;BME280;41331;45.412;10.992;2022-10-19T01:48:25;101598.91;;;15.72;100.00
23433;BME280;41331;45.412;10.992;2022-10-19T01:51:04;101595.22;;;15.68;100.00
23433;BME280;41331;45.412;10.992;2022-10-19T01:53:37;101588.59;;;15.61;100.00
23433;BME280;41331;45.412;10.992;2022-10-19T01:56:07;101601.28;;;15.53;100.00
23433;BME280;41331;45.412;10.992;2022-10-19T01:58:36;101591.56;;;15.55;100.00
23433;BME280;41331;45.412;10.992;2022-10-19T02:01:08;101596.94;;;15.52;100.00
23433;BME280;41331;45.412;10.992;2022-10-19T02:03:39;101596.44;;;15.50;100.00
23433;BME280;41331;45.412;10.992;2022-10-19T02:06:08;101601.94;;;15.50;100.00
23433;BME280;41331;45.412;10.992;2022-10-19T02:08:48;101586.81;;;15.44;100.00
23433;BME280;41331;45.412;10.992;2022-10-19T02:11:16;101593.03;;;15.32;100.00
23433;BME280;41331;45.412;10.992;2022-10-19T02:13:45;101590.41;;;15.36;100.00
23433;BME280;41331;45.412;10.992;2022-10-19T02:16:26;101579.00;;;15.25;100.00
23433;BME280;41331;45.412;10.992;2022-10-19T02:18:57;101575.63;;;15.28;100.00
23433;BME280;41331;45.412;10.992;2022-10-19T02:21:26;101577.06;;;15.25;100.00
23433;BME280;41331;45.412;10.992;2022-10-19T02:23:54;101583.69;;;15.24;100.00
23433;BME280;41331;45.412;10.992;2022-10-19T02:26:21;101578.13;;;15.12;100.00
23433;BME280;41331;45.412;10.992;2022-10-19T02:28:49;101583.63;;;15.12;100.00
23433;BME280;41331;45.412;10.992;2022-10-19T02:31:17;101578.59;;;15.14;100.00
23433;BME280;41331;45.412;10.992;2022-10-19T02:33:44;101574.06;;;15.18;100.00
23433;BME280;41331;45.412;10.992;2022-10-19T02:36:11;101573.59;;;15.16;100.00
23433;BME280;41331;45.412;10.992;2022-10-19T02:38:40;101581.00;;;15.16;100.00
23433;BME280;41331;45.412;10.992;2022-10-19T02:41:26;101572.31;;;15.14;100.00
23433;BME280;41331;45.412;10.992;2022-10-19T02:43:59;101569.72;;;15.17;100.00
23433;BME280;41331;45.412;10.992;2022-10-19T02:46:36;101571.34;;;15.10;100.00
23433;BME280;41331;45.412;10.992;2022-10-19T02:49:11;101559.25;;;15.11;100.00
23433;BME280;41331;45.412;10.992;2022-10-19T02:51:55;101555.72;;;15.10;100.00
23433;BME280;41331;45.412;10.992;2022-10-19T02:54:25;101559.44;;;15.06;100.00
23433;BME280;41331;45.412;10.992;2022-10-19T02:56:52;101556.59;;;15.02;100.00
23433;BME280;41331;45.412;10.992;2022-10-19T02:59:20;101556.69;;;15.06;100.00
23433;BME280;41331;45.412;10.992;2022-10-19T03:01:48;101563.06;;;14.97;100.00
23433;BME280;41331;45.412;10.992;2022-10-19T03:04:15;101560.16;;;14.94;100.00
23433;BME280;41331;45.412;10.992;2022-10-19T03:06:43;101559.38;;;14.93;100.00
23433;BME280;41331;45.412;10.992;2022-10-19T03:09:10;101572.44;;;14.88;100.00
23433;BME280;41331;45.412;10.992;2022-10-19T03:11:38;101560.88;;;14.82;100.00
23433;BME280;41331;45.412;10.992;2022-10-19T03:14:05;101556.53;;;14.81;100.00
23433;BME280;41331;45.412;10.992;2022-10-19T03:16:35;101555.69;;;14.81;100.00
23433;BME280;41331;45.412;10.992;2022-10-19T03:19:02;101557.19;;;14.78;100.00
23433;BME280;41331;45.412;10.992;2022-10-19T03:21:29;101558.16;;;14.73;100.00
23433;BME280;41331;45.412;10.992;2022-10-19T03:23:58;101552.34;;;14.75;100.00
23433;BME280;41331;45.412;10.992;2022-10-19T03:26:26;101548.50;;;14.76;100.00
23433;BME280;41331;45.412;10.992;2022-10-19T03:28:54;101555.41;;;14.73;100.00
23433;BME280;41331;45.412;10.992;2022-10-19T03:31:21;101553.63;;;14.77;100.00
23433;BME280;41331;45.412;10.992;2022-10-19T03:33:48;101547.97;;;14.83;100.00
23433;BME280;41331;45.412;10.992;2022-10-19T03:36:30;101551.53;;;14.74;100.00
23433;BME280;41331;45.412;10.992;2022-10-19T03:39:01;101550.91;;;14.77;100.00
23433;BME280;41331;45.412;10.992;2022-10-19T03:41:32;101553.16;;;14.75;100.00
23433;BME280;41331;45.412;10.992;2022-10-19T03:44:02;101553.31;;;14.79;100.00
23433;BME280;41331;45.412;10.992;2022-10-19T03:46:29;101554.97;;;14.71;100.00
23433;BME280;41331;45.412;10.992;2022-10-19T03:48:57;101547.84;;;14.70;100.00
23433;BME280;41331;45.412;10.992;2022-10-19T03:51:26;101551.88;;;14.73;100.00
23433;BME280;41331;45.412;10.992;2022-10-19T03:54:03;101545.41;;;14.77;100.00
23433;BME280;41331;45.412;10.992;2022-10-19T03:56:32;101549.41;;;14.80;100.00
23433;BME280;41331;45.412;10.992;2022-10-19T03:59:00;101551.34;;;14.80;100.00
23433;BME280;41331;45.412;10.992;2022-10-19T04:01:34;101549.72;;;14.87;100.00
23433;BME280;41331;45.412;10.992;2022-10-19T04:04:04;101549.56;;;14.84;100.00
23433;BME280;41331;45.412;10.992;2022-10-19T04:06:35;101562.81;;;14.82;100.00
23433;BME280;41331;45.412;10.992;2022-10-19T04:09:03;101553.97;;;14.76;100.00
23433;BME280;41331;45.412;10.992;2022-10-19T04:11:32;101559.78;;;14.66;100.00
23433;BME280;41331;45.412;10.992;2022-10-19T04:14:02;101556.63;;;14.55;100.00
23433;BME280;41331;45.412;10.992;2022-10-19T04:16:31;101556.31;;;14.57;100.00
23433;BME280;41331;45.412;10.992;2022-10-19T04:18:59;101553.38;;;14.62;100.00
23433;BME280;41331;45.412;10.992;2022-10-19T04:26:30;101554.47;;;14.69;100.00
23433;BME280;41331;45.412;10.992;2022-10-19T04:29:00;101556.25;;;14.65;100.00
23433;BME280;41331;45.412;10.992;2022-10-19T04:31:29;101556.31;;;14.57;100.00
23433;BME280;41331;45.412;10.992;2022-10-19T04:33:57;101552.59;;;14.53;100.00
23433;BME280;41331;45.412;10.992;2022-10-19T04:36:24;101552.75;;;14.56;100.00
23433;BME280;41331;45.412;10.992;2022-10-19T04:38:51;101548.09;;;14.57;100.00
23433;BME280;41331;45.412;10.992;2022-10-19T04:41:20;101548.72;;;14.45;100.00
23433;BME280;41331;45.412;10.992;2022-10-19T04:43:53;101551.00;;;14.43;100.00
23433;BME280;41331;45.412;10.992;2022-10-19T04:46:20;101549.56;;;14.37;100.00
23433;BME280;41331;45.412;10.992;2022-10-19T04:48:48;101551.69;;;14.31;100.00
23433;BME280;41331;45.412;10.992;2022-10-19T04:51:19;101552.50;;;14.32;100.00
23433;BME280;41331;45.412;10.992;2022-10-19T04:53:46;101547.19;;;14.27;100.00
23433;BME280;41331;45.412;10.992;2022-10-19T04:56:22;101556.19;;;14.27;100.00
23433;BME280;41331;45.412;10.992;2022-10-19T04:58:49;101551.03;;;14.25;100.00
23433;BME280;41331;45.412;10.992;2022-10-19T05:01:19;101550.09;;;14.21;100.00
23433;BME280;41331;45.412;10.992;2022-10-19T05:03:47;101550.38;;;14.29;100.00
23433;BME280;41331;45.412;10.992;2022-10-19T05:06:14;101557.16;;;14.31;100.00
23433;BME280;41331;45.412;10.992;2022-10-19T05:08:42;101555.72;;;14.25;100.00
23433;BME280;41331;45.412;10.992;2022-10-19T05:11:12;101560.06;;;14.26;100.00
23433;BME280;41331;45.412;10.992;2022-10-19T05:13:41;101570.34;;;14.29;100.00
23433;BME280;41331;45.412;10.992;2022-10-19T05:16:12;101563.63;;;14.27;100.00
23433;BME280;41331;45.412;10.992;2022-10-19T05:18:40;101565.69;;;14.30;100.00
23433;BME280;41331;45.412;10.992;2022-10-19T05:21:10;101567.31;;;14.22;100.00
23433;BME280;41331;45.412;10.992;2022-10-19T05:23:40;101565.91;;;14.16;100.00
23433;BME280;41331;45.412;10.992;2022-10-19T05:26:11;101564.44;;;14.18;100.00
23433;BME280;41331;45.412;10.992;2022-10-19T05:28:39;101559.41;;;14.20;100.00
23433;BME280;41331;45.412;10.992;2022-10-19T05:31:16;101559.47;;;14.12;100.00
23433;BME280;41331;45.412;10.992;2022-10-19T05:33:46;101553.00;;;14.16;100.00
23433;BME280;41331;45.412;10.992;2022-10-19T05:36:26;101553.19;;;14.11;100.00
23433;BME280;41331;45.412;10.992;2022-10-19T05:38:55;101562.81;;;14.17;100.00
23433;BME280;41331;45.412;10.992;2022-10-19T05:41:25;101556.84;;;14.15;100.00
23433;BME280;41331;45.412;10.992;2022-10-19T05:43:54;101564.25;;;14.23;100.00
23433;BME280;41331;45.412;10.992;2022-10-19T05:46:23;101558.13;;;14.27;100.00
23433;BME280;41331;45.412;10.992;2022-10-19T05:48:51;101562.78;;;14.35;100.00
23433;BME280;41331;45.412;10.992;2022-10-19T05:51:20;101562.59;;;14.40;100.00
23433;BME280;41331;45.412;10.992;2022-10-19T05:53:47;101570.00;;;14.39;100.00
23433;BME280;41331;45.412;10.992;2022-10-19T05:56:18;101568.59;;;14.33;100.00
23433;BME280;41331;45.412;10.992;2022-10-19T05:58:46;101562.78;;;14.35;100.00
23433;BME280;41331;45.412;10.992;2022-10-19T06:01:15;101557.63;;;14.42;100.00
23433;BME280;41331;45.412;10.992;2022-10-19T06:03:46;101563.56;;;14.44;100.00
23433;BME280;41331;45.412;10.992;2022-10-19T06:06:13;101562.91;;;14.47;100.00
23433;BME280;41331;45.412;10.992;2022-10-19T06:08:41;101559.69;;;14.45;100.00
23433;BME280;41331;45.412;10.992;2022-10-19T06:11:13;101564.53;;;14.48;100.00
23433;BME280;41331;45.412;10.992;2022-10-19T06:13:43;101567.09;;;14.53;100.00
23433;BME280;41331;45.412;10.992;2022-10-19T06:16:13;101579.81;;;14.58;100.00
23433;BME280;41331;45.412;10.992;2022-10-19T06:18:41;101571.88;;;14.65;100.00
23433;BME280;41331;45.412;10.992;2022-10-19T06:21:14;101581.28;;;14.93;100.00
23433;BME280;41331;45.412;10.992;2022-10-19T06:23:43;101586.09;;;15.26;100.00
23433;BME280;41331;45.412;10.992;2022-10-19T06:26:14;101586.28;;;15.21;100.00
23433;BME280;41331;45.412;10.992;2022-10-19T06:28:42;101594.22;;;15.22;100.00
23433;BME280;41331;45.412;10.992;2022-10-19T06:31:10;101592.31;;;15.14;100.00
23433;BME280;41331;45.412;10.992;2022-10-19T06:33:41;101587.88;;;15.01;100.00
23433;BME280;41331;45.412;10.992;2022-10-19T06:36:15;101595.16;;;14.97;100.00
23433;BME280;41331;45.412;10.992;2022-10-19T06:38:43;101603.94;;;15.11;100.00
23433;BME280;41331;45.412;10.992;2022-10-19T06:41:11;101602.75;;;15.21;100.00
23433;BME280;41331;45.412;10.992;2022-10-19T06:43:39;101597.75;;;15.23;100.00
23433;BME280;41331;45.412;10.992;2022-10-19T06:46:13;101604.94;;;15.36;100.00
23433;BME280;41331;45.412;10.992;2022-10-19T06:48:43;101612.44;;;15.48;100.00
23433;BME280;41331;45.412;10.992;2022-10-19T06:51:10;101603.81;;;15.58;100.00
23433;BME280;41331;45.412;10.992;2022-10-19T06:53:39;101611.69;;;15.68;100.00
23433;BME280;41331;45.412;10.992;2022-10-19T06:56:07;101608.59;;;15.70;99.60
23433;BME280;41331;45.412;10.992;2022-10-19T06:58:36;101609.94;;;15.85;99.08
23433;BME280;41331;45.412;10.992;2022-10-19T07:01:04;101604.59;;;15.88;98.50
23433;BME280;41331;45.412;10.992;2022-10-19T07:03:35;101613.41;;;15.94;98.55
23433;BME280;41331;45.412;10.992;2022-10-19T07:08:53;101608.69;;;16.15;96.42
23433;BME280;41331;45.412;10.992;2022-10-19T07:11:20;101612.84;;;16.21;95.80
23433;BME280;41331;45.412;10.992;2022-10-19T07:13:51;101616.09;;;16.36;94.89
23433;BME280;41331;45.412;10.992;2022-10-19T07:16:19;101608.69;;;16.48;93.85
23433;BME280;41331;45.412;10.992;2022-10-19T07:18:51;101611.56;;;16.52;93.06
23433;BME280;41331;45.412;10.992;2022-10-19T07:21:21;101605.38;;;16.55;93.30
23433;BME280;41331;45.412;10.992;2022-10-19T07:23:49;101609.78;;;16.68;91.40
23433;BME280;41331;45.412;10.992;2022-10-19T07:26:22;101609.22;;;16.75;90.28
23433;BME280;41331;45.412;10.992;2022-10-19T07:28:54;101608.28;;;16.71;90.81
23433;BME280;41331;45.412;10.992;2022-10-19T07:31:23;101605.59;;;16.83;90.75
23433;BME280;41331;45.412;10.992;2022-10-19T07:33:56;101606.50;;;16.87;90.65
23433;BME280;41331;45.412;10.992;2022-10-19T07:36:24;101608.78;;;17.09;90.59
23433;BME280;41331;45.412;10.992;2022-10-19T07:38:52;101604.16;;;17.50;88.11
23433;BME280;41331;45.412;10.992;2022-10-19T07:41:22;101603.03;;;17.92;86.36
23433;BME280;41331;45.412;10.992;2022-10-19T07:43:50;101603.84;;;18.48;83.46
23433;BME280;41331;45.412;10.992;2022-10-19T07:46:21;101602.00;;;19.51;78.00
23433;BME280;41331;45.412;10.992;2022-10-19T07:48:48;101602.03;;;20.93;70.83
23433;BME280;41331;45.412;10.992;2022-10-19T07:51:17;101606.19;;;21.33;69.30
23433;BME280;41331;45.412;10.992;2022-10-19T07:53:45;101603.50;;;21.67;66.29
23433;BME280;41331;45.412;10.992;2022-10-19T07:56:15;101593.50;;;22.22;63.28
23433;BME280;41331;45.412;10.992;2022-10-19T07:58:42;101603.00;;;22.62;61.29
23433;BME280;41331;45.412;10.992;2022-10-19T08:01:15;101596.84;;;23.38;58.36
23433;BME280;41331;45.412;10.992;2022-10-19T08:03:43;101599.22;;;24.27;55.98
23433;BME280;41331;45.412;10.992;2022-10-19T08:06:31;101604.47;;;24.96;52.90
23433;BME280;41331;45.412;10.992;2022-10-19T08:08:58;101597.16;;;25.70;50.94
23433;BME280;41331;45.412;10.992;2022-10-19T08:11:30;101597.94;;;25.81;50.14
23433;BME280;41331;45.412;10.992;2022-10-19T08:13:59;101595.03;;;26.06;49.32
23433;BME280;41331;45.412;10.992;2022-10-19T08:16:37;101596.13;;;26.20;48.82
23433;BME280;41331;45.412;10.992;2022-10-19T08:19:12;101589.56;;;27.00;47.04
23433;BME280;41331;45.412;10.992;2022-10-19T08:21:42;101582.19;;;26.75;47.37
23433;BME280;41331;45.412;10.992;2022-10-19T08:24:12;101598.41;;;26.95;47.49
23433;BME280;41331;45.412;10.992;2022-10-19T08:26:40;101589.63;;;26.96;46.27
23433;BME280;41331;45.412;10.992;2022-10-19T08:31:39;101585.66;;;27.35;45.18
23433;BME280;41331;45.412;10.992;2022-10-19T08:34:07;101593.91;;;28.10;44.52
23433;BME280;41331;45.412;10.992;2022-10-19T08:36:34;101589.38;;;27.93;44.69
23433;BME280;41331;45.412;10.992;2022-10-19T08:39:04;101583.78;;;27.93;44.74
23433;BME280;41331;45.412;10.992;2022-10-19T08:49:42;101580.78;;;28.34;42.48
23433;BME280;41331;45.412;10.992;2022-10-19T08:52:20;101572.47;;;28.00;42.36
23433;BME280;41331;45.412;10.992;2022-10-19T08:54:54;101578.13;;;28.51;42.22
23433;BME280;41331;45.412;10.992;2022-10-19T09:06:01;101573.50;;;28.41;43.28
23433;BME280;41331;45.412;10.992;2022-10-19T09:08:33;101568.38;;;28.35;43.41
23433;BME280;41331;45.412;10.992;2022-10-19T09:11:01;101581.41;;;28.19;44.41
23433;BME280;41331;45.412;10.992;2022-10-19T09:13:44;101575.53;;;28.63;43.52
23433;BME280;41331;45.412;10.992;2022-10-19T09:16:31;101584.19;;;28.73;43.54
23433;BME280;41331;45.412;10.992;2022-10-19T09:19:02;101578.25;;;28.44;42.67
23433;BME280;41331;45.412;10.992;2022-10-19T09:21:42;101574.22;;;28.72;42.34
23433;BME280;41331;45.412;10.992;2022-10-19T09:27:04;101572.75;;;28.63;42.30
23433;BME280;41331;45.412;10.992;2022-10-19T09:29:55;101570.44;;;27.74;44.41
23433;BME280;41331;45.412;10.992;2022-10-19T09:32:30;101577.75;;;27.60;44.76
23433;BME280;41331;45.412;10.992;2022-10-19T09:35:02;101577.03;;;26.77;46.75
23433;BME280;41331;45.412;10.992;2022-10-19T09:37:31;101583.75;;;26.24;48.13
23433;BME280;41331;45.412;10.992;2022-10-19T09:40:04;101578.38;;;25.96;49.07
23433;BME280;41331;45.412;10.992;2022-10-19T09:42:32;101584.00;;;25.81;49.78
23433;BME280;41331;45.412;10.992;2022-10-19T09:45:15;101579.34;;;25.43;51.47
23433;BME280;41331;45.412;10.992;2022-10-19T09:47:47;101580.50;;;25.52;50.69
23433;BME280;41331;45.412;10.992;2022-10-19T09:50:16;101579.34;;;25.39;51.52
23433;BME280;41331;45.412;10.992;2022-10-19T09:52:45;101578.63;;;25.21;51.61
23433;BME280;41331;45.412;10.992;2022-10-19T09:57:49;101584.56;;;25.01;51.67
23433;BME280;41331;45.412;10.992;2022-10-19T10:00:18;101581.34;;;24.32;54.43
23433;BME280;41331;45.412;10.992;2022-10-19T10:02:51;101579.00;;;24.44;53.97
23433;BME280;41331;45.412;10.992;2022-10-19T10:05:30;101576.63;;;24.64;53.43
23433;BME280;41331;45.412;10.992;2022-10-19T10:07:58;101573.34;;;24.12;55.05
23433;BME280;41331;45.412;10.992;2022-10-19T10:10:34;101592.00;;;24.08;55.63
23433;BME280;41331;45.412;10.992;2022-10-19T10:13:04;101576.09;;;23.98;56.14
23433;BME280;41331;45.412;10.992;2022-10-19T10:15:41;101574.03;;;23.70;57.50
23433;BME280;41331;45.412;10.992;2022-10-19T10:18:18;101579.81;;;23.40;58.64
23433;BME280;41331;45.412;10.992;2022-10-19T10:20:59;101575.72;;;23.19;58.99
23433;BME280;41331;45.412;10.992;2022-10-19T10:23:31;101574.91;;;23.15;60.26
23433;BME280;41331;45.412;10.992;2022-10-19T10:26:04;101581.63;;;23.14;61.20
23433;BME280;41331;45.412;10.992;2022-10-19T10:28:32;101573.28;;;23.14;61.11
23433;BME280;41331;45.412;10.992;2022-10-19T10:31:06;101578.69;;;23.59;58.10
23433;BME280;41331;45.412;10.992;2022-10-19T10:33:36;101577.59;;;23.74;57.62
23433;BME280;41331;45.412;10.992;2022-10-19T10:36:11;101569.44;;;23.33;59.43
23433;BME280;41331;45.412;10.992;2022-10-19T10:38:44;101565.41;;;23.23;60.16
23433;BME280;41331;45.412;10.992;2022-10-19T10:41:16;101574.16;;;23.29;60.82
23433;BME280;41331;45.412;10.992;2022-10-19T10:46:23;101565.88;;;23.33;60.86
23433;BME280;41331;45.412;10.992;2022-10-19T10:49:03;101555.38;;;23.70;58.43
23433;BME280;41331;45.412;10.992;2022-10-19T10:51:37;101541.44;;;23.63;58.47
23433;BME280;41331;45.412;10.992;2022-10-19T10:54:32;101538.44;;;23.24;60.06
23433;BME280;41331;45.412;10.992;2022-10-19T10:57:11;101535.81;;;23.52;59.23
23433;BME280;41331;45.412;10.992;2022-10-19T10:59:55;101535.25;;;23.22;60.63
23433;BME280;41331;45.412;10.992;2022-10-19T11:02:55;101521.69;;;23.06;62.36
23433;BME280;41331;45.412;10.992;2022-10-19T11:05:30;101527.25;;;23.13;62.66
23433;BME280;41331;45.412;10.992;2022-10-19T11:08:14;101519.78;;;23.21;61.22
23433;BME280;41331;45.412;10.992;2022-10-19T11:11:09;101514.75;;;23.48;59.03
23433;BME280;41331;45.412;10.992;2022-10-19T11:13:37;101513.53;;;23.42;60.18
23433;BME280;41331;45.412;10.992;2022-10-19T11:16:18;101509.78;;;23.09;61.41
23433;BME280;41331;45.412;10.992;2022-10-19T11:21:35;101513.91;;;23.37;59.35
23433;BME280;41331;45.412;10.992;2022-10-19T11:24:23;101511.03;;;23.15;61.01
23433;BME280;41331;45.412;10.992;2022-10-19T11:27:09;101498.34;;;23.18;61.27
23433;BME280;41331;45.412;10.992;2022-10-19T11:30:08;101503.94;;;23.25;61.29
23433;BME280;41331;45.412;10.992;2022-10-19T11:33:00;101493.72;;;23.47;61.10
23433;BME280;41331;45.412;10.992;2022-10-19T11:35:43;101490.50;;;23.38;60.44
23433;BME280;41331;45.412;10.992;2022-10-19T11:44:00;101475.59;;;23.85;58.57
23433;BME280;41331;45.412;10.992;2022-10-19T11:47:42;101477.22;;;24.08;57.82
23433;BME280;41331;45.412;10.992;2022-10-19T11:55:18;101459.75;;;24.53;56.00
23433;BME280;41331;45.412;10.992;2022-10-19T12:00:56;101449.38;;;24.72;54.93
23433;BME280;41331;45.412;10.992;2022-10-19T12:06:35;101452.16;;;24.65;56.33
23433;BME280;41331;45.412;10.992;2022-10-19T12:14:25;101439.88;;;24.59;54.53
23433;BME280;41331;45.412;10.992;2022-10-19T12:16:57;101449.78;;;24.77;54.19
23433;BME280;41331;45.412;10.992;2022-10-19T12:19:30;101439.47;;;24.60;55.32
23433;BME280;41331;45.412;10.992;2022-10-19T12:22:01;101437.06;;;24.59;55.91
23433;BME280;41331;45.412;10.992;2022-10-19T12:24:31;101435.09;;;24.66;55.43
23433;BME280;41331;45.412;10.992;2022-10-19T12:27:00;101427.13;;;24.68;55.22
23433;BME280;41331;45.412;10.992;2022-10-19T12:29:32;101429.09;;;24.82;55.55
23433;BME280;41331;45.412;10.992;2022-10-19T12:32:01;101427.91;;;24.69;52.05
23433;BME280;41331;45.412;10.992;2022-10-19T12:35:07;101419.53;;;24.79;51.08
23433;BME280;41331;45.412;10.992;2022-10-19T12:37:48;101424.31;;;24.79;51.44
23433;BME280;41331;45.412;10.992;2022-10-19T12:43:09;101406.81;;;24.75;51.93
23433;BME280;41331;45.412;10.992;2022-10-19T12:45:50;101400.88;;;24.73;51.48
23433;BME280;41331;45.412;10.992;2022-10-19T12:48:20;101400.03;;;24.83;51.21
23433;BME280;41331;45.412;10.992;2022-10-19T12:53:30;101398.84;;;24.84;50.29
23433;BME280;41331;45.412;10.992;2022-10-19T12:58:58;101397.59;;;24.99;49.41
23433;BME280;41331;45.412;10.992;2022-10-19T13:01:40;101391.63;;;25.01;49.17
23433;BME280;41331;45.412;10.992;2022-10-19T13:04:11;101387.69;;;24.88;49.04
23433;BME280;41331;45.412;10.992;2022-10-19T13:07:06;101382.13;;;24.91;49.65
23433;BME280;41331;45.412;10.992;2022-10-19T13:09:36;101380.50;;;24.97;49.90
23433;BME280;41331;45.412;10.992;2022-10-19T13:27:44;101351.50;;;24.84;48.91
23433;BME280;41331;45.412;10.992;2022-10-19T13:41:18;101342.41;;;24.73;49.19
23433;BME280;41331;45.412;10.992;2022-10-19T13:43:56;101348.00;;;24.69;49.22
23433;BME280;41331;45.412;10.992;2022-10-19T14:04:01;101338.94;;;24.19;51.33
23433;BME280;41331;45.412;10.992;2022-10-19T14:12:20;101335.41;;;24.11;51.28
23433;BME280;41331;45.412;10.992;2022-10-19T14:14:49;101331.81;;;24.25;51.33
23433;BME280;41331;45.412;10.992;2022-10-19T14:17:31;101331.41;;;24.26;51.98
23433;BME280;41331;45.412;10.992;2022-10-19T14:20:00;101327.38;;;24.35;49.73
23433;BME280;41331;45.412;10.992;2022-10-19T14:22:34;101320.28;;;24.26;49.95
23433;BME280;41331;45.412;10.992;2022-10-19T14:27:44;101330.22;;;24.20;50.57
23433;BME280;41331;45.412;10.992;2022-10-19T14:30:30;101329.44;;;24.16;50.80
23433;BME280;41331;45.412;10.992;2022-10-19T14:33:00;101335.78;;;24.10;51.56
23433;BME280;41331;45.412;10.992;2022-10-19T14:35:39;101322.69;;;24.03;51.42
23433;BME280;41331;45.412;10.992;2022-10-19T14:38:25;101331.81;;;24.03;51.15
23433;BME280;41331;45.412;10.992;2022-10-19T14:40:53;101317.16;;;23.96;51.04
23433;BME280;41331;45.412;10.992;2022-10-19T14:43:28;101309.59;;;24.00;50.92
23433;BME280;41331;45.412;10.992;2022-10-19T14:46:25;101311.97;;;24.01;51.38
23433;BME280;41331;45.412;10.992;2022-10-19T14:49:04;101315.13;;;24.07;49.97
23433;BME280;41331;45.412;10.992;2022-10-19T14:51:48;101312.34;;;24.11;50.39
23433;BME280;41331;45.412;10.992;2022-10-19T14:56:51;101310.78;;;23.88;51.47
23433;BME280;41331;45.412;10.992;2022-10-19T14:59:26;101315.56;;;23.77;52.00
23433;BME280;41331;45.412;10.992;2022-10-19T15:01:58;101313.94;;;23.94;51.99
23433;BME280;41331;45.412;10.992;2022-10-19T15:04:29;101313.16;;;23.97;51.97
23433;BME280;41331;45.412;10.992;2022-10-19T15:06:59;101312.78;;;23.81;51.98
23433;BME280;41331;45.412;10.992;2022-10-19T15:09:31;101315.97;;;23.72;52.31
23433;BME280;41331;45.412;10.992;2022-10-19T15:12:17;101312.00;;;23.66;52.48
23433;BME280;41331;45.412;10.992;2022-10-19T15:14:47;101311.19;;;23.65;52.87
23433;BME280;41331;45.412;10.992;2022-10-19T15:17:22;101312.34;;;23.57;53.60
23433;BME280;41331;45.412;10.992;2022-10-19T15:19:51;101311.16;;;23.51;54.64
23433;BME280;41331;45.412;10.992;2022-10-19T15:22:37;101316.31;;;23.45;55.54
23433;BME280;41331;45.412;10.992;2022-10-19T15:27:37;101320.25;;;23.34;55.81
23433;BME280;41331;45.412;10.992;2022-10-19T15:32:46;101324.22;;;23.25;56.14